Lintlaw, Canada
Current Conditions -  °F | °C
As of 1:06 AM on Sunday 23 Nov 2014 (Local Time) from CYQV Reporting Station
Light Snow Light Snow  
Wind Chill:   Ceiling: 700
Heat Index: 19°   Visibility: 0.75mi
Dew Point: 18°   Wind: 16mph
Humidity: 93%   Direction: 40°NE
Pressure: 29.3"   Gusts: 22mph
Location:  52.07°N, 103.25°W
Report Text: CYQV 230706Z AUTO 04014G19KT 3/4SM -SN VV007 M07/M08 A2930 RMK SLP953
Loading
Personal Weather Stations






























Interactive Weather Map New forecast layout! Learn more

10-Day Weather Forecast

Advertisements
Track Severe Weather on mobile